Time;durP1;ratioP1;P1;durP2;ratioP2;P2;SDS_P1;SDS_P2;PMS_P1;PMS_P2;Temp;Humidity;BMP_temperature;BMP_pressure;BME280_temperature;BME280_humidity;BME280_pressure;Samples;Min_cycle;Max_cycle;Signal;HPM_P1;HPM_P2
2022/08/21 00:00:39;;;;;;;;;;;;;;;24.83;51.70;94617.94;2078813;28;1579;-63
2022/08/21 00:01:46;;;;;;;;;;;;;;;24.86;51.68;94627.38;2082659;28;1048;-60
2022/08/21 00:02:50;;;;;;;;;;;;;;;24.87;51.74;94612.88;2079384;28;1622;-61
2022/08/21 00:03:53;;;;;;;;;;;;;;;24.83;51.71;94615.25;2074788;28;1910;-62
2022/08/21 00:04:55;;;;;;;;;;;;;;;24.83;51.48;94614.44;2081513;28;1485;-61
2022/08/21 00:06:00;;;;;;;;;;;;;;;24.79;51.71;94608.72;2077291;28;1758;-62
2022/08/21 00:07:03;;;;;;;;;;;;;;;24.77;51.68;94600.91;2073503;28;1601;-63
2022/08/21 00:08:06;;;;;;;;;;;;;;;24.78;51.77;94602.50;2073788;28;1706;-61
2022/08/21 00:09:08;;;;;;;;;;;;;;;24.79;51.82;94592.59;2071784;28;1656;-61
2022/08/21 00:10:11;;;;;;;;;;;;;;;24.80;51.74;94595.03;2082146;28;2083;-62
2022/08/21 00:11:13;;;;;;;;;;;;;;;24.75;51.89;94599.53;2082303;28;1264;-62
2022/08/21 00:12:16;;;;;;;;;;;;;;;24.84;51.42;94602.63;2079966;28;1591;-62
2022/08/21 00:13:19;;;;;;;;;;;;;;;24.90;51.44;94607.00;2075685;28;1740;-63
2022/08/21 00:14:22;;;;;;;;;;;;;;;24.93;51.01;94598.47;2078517;28;1601;-64
2022/08/21 00:15:26;;;;;;;;;;;;;;;24.93;51.13;94607.34;2074380;28;1752;-61
2022/08/21 00:16:29;;;;;;;;;;;;;;;24.98;51.07;94598.50;2072915;28;1753;-64
2022/08/21 00:17:30;;;;;;;;;;;;;;;24.96;50.72;94600.66;2074496;28;1556;-64
2022/08/21 00:18:33;;;;;;;;;;;;;;;25.05;50.88;94607.22;2065916;28;1064;-62
2022/08/21 00:19:35;;;;;;;;;;;;;;;25.10;50.99;94606.44;2058802;28;2456;-63
2022/08/21 00:20:38;;;;;;;;;;;;;;;25.18;50.78;94598.78;2064297;28;1085;-63
2022/08/21 00:21:40;;;;;;;;;;;;;;;25.10;50.84;94599.22;2073339;28;1746;-62
2022/08/21 00:22:48;;;;;;;;;;;;;;;25.06;50.90;94595.38;2074013;28;1526;-61
2022/08/21 00:23:49;;;;;;;;;;;;;;;25.01;51.00;94604.22;2065437;28;1907;-64
2022/08/21 00:24:52;;;;;;;;;;;;;;;25.01;50.81;94592.63;2065664;28;1560;-64
2022/08/21 00:25:54;;;;;;;;;;;;;;;24.97;51.00;94602.28;2075989;28;1745;-62
2022/08/21 00:26:57;;;;;;;;;;;;;;;24.88;51.34;94596.50;2074554;28;1564;-63
2022/08/21 00:27:59;;;;;;;;;;;;;;;24.89;51.44;94594.63;2080431;28;1562;-63
2022/08/21 00:29:02;;;;;;;;;;;;;;;24.83;51.60;94587.56;2078969;28;1743;-63
2022/08/21 00:30:04;;;;;;;;;;;;;;;24.80;51.70;94599.59;2079966;28;1744;-64
2022/08/21 00:31:07;;;;;;;;;;;;;;;24.78;51.72;94602.50;2071858;28;1559;-62
2022/08/21 00:32:09;;;;;;;;;;;;;;;24.74;51.73;94598.72;2081823;28;1223;-63
2022/08/21 00:33:12;;;;;;;;;;;;;;;24.71;51.91;94604.59;2078551;28;1706;-64
2022/08/21 00:34:14;;;;;;;;;;;;;;;24.69;51.90;94597.81;2081383;28;2297;-63
2022/08/21 00:35:19;;;;;;;;;;;;;;;24.65;51.75;94594.84;2081680;28;1832;-62
2022/08/21 00:36:21;;;;;;;;;;;;;;;24.66;51.95;94591.06;2080643;28;1599;-63
2022/08/21 00:37:24;;;;;;;;;;;;;;;24.68;51.70;94597.03;2076583;28;1756;-64
2022/08/21 00:38:27;;;;;;;;;;;;;;;24.69;51.82;94585.19;2074257;28;1855;-64
2022/08/21 00:39:30;;;;;;;;;;;;;;;24.74;51.37;94590.66;2073895;28;1799;-63
2022/08/21 00:40:33;;;;;;;;;;;;;;;24.66;51.76;94590.25;2074000;28;1105;-64
2022/08/21 00:41:37;;;;;;;;;;;;;;;24.60;51.82;94586.69;2072441;28;1765;-67
2022/08/21 00:42:39;;;;;;;;;;;;;;;24.65;51.79;94594.84;2068471;28;1493;-64
2022/08/21 00:43:42;;;;;;;;;;;;;;;24.67;51.70;94600.78;2075190;28;1792;-67
2022/08/21 00:44:45;;;;;;;;;;;;;;;24.63;51.64;94599.63;2080504;28;1898;-67
2022/08/21 00:45:47;;;;;;;;;;;;;;;24.62;51.96;94600.69;2073656;28;1081;-65
2022/08/21 00:46:49;;;;;;;;;;;;;;;24.62;51.73;94598.00;2073918;28;1784;-65
2022/08/21 00:47:54;;;;;;;;;;;;;;;24.65;51.59;94597.53;2077967;28;1572;-65
2022/08/21 00:48:56;;;;;;;;;;;;;;;24.68;51.88;94598.91;2078447;28;1708;-66
2022/08/21 00:50:00;;;;;;;;;;;;;;;24.71;51.70;94598.41;2082071;28;1175;-65
2022/08/21 00:51:06;;;;;;;;;;;;;;;24.71;51.78;94604.59;2082053;28;1025;-65
2022/08/21 00:52:10;;;;;;;;;;;;;;;24.71;51.36;94604.59;2077688;28;1595;-64
2022/08/21 00:53:13;;;;;;;;;;;;;;;24.75;51.28;94605.69;2076436;28;1766;-65
2022/08/21 00:54:18;;;;;;;;;;;;;;;24.71;51.41;94611.84;2075713;28;2119;-65
2022/08/21 00:55:21;;;;;;;;;;;;;;;24.67;51.56;94610.69;2081626;28;1587;-64
2022/08/21 00:56:26;;;;;;;;;;;;;;;24.61;51.99;94604.44;2081133;28;1574;-65
2022/08/21 00:57:29;;;;;;;;;;;;;;;24.65;51.70;94600.19;2082028;28;1100;-65
2022/08/21 00:58:32;;;;;;;;;;;;;;;24.62;51.62;94594.53;2078120;28;1863;-64
2022/08/21 00:59:36;;;;;;;;;;;;;;;24.63;51.50;94596.13;2082142;28;1132;-64
2022/08/21 01:00:40;;;;;;;;;;;;;;;24.64;51.63;94593.19;2079310;28;1571;-64
2022/08/21 01:01:42;;;;;;;;;;;;;;;24.67;51.54;94595.41;2082002;28;1108;-64
2022/08/21 01:02:46;;;;;;;;;;;;;;;24.65;51.37;94594.84;2079155;28;1605;-65
2022/08/21 01:03:48;;;;;;;;;;;;;;;24.64;51.40;94595.88;2074313;28;1767;-65
2022/08/21 01:04:51;;;;;;;;;;;;;;;24.62;51.49;94586.47;2069181;28;1999;-65
2022/08/21 01:05:53;;;;;;;;;;;;;;;24.62;51.70;94589.16;2068739;28;1347;-65
2022/08/21 01:06:56;;;;;;;;;;;;;;;24.70;51.05;94580.63;2076774;28;1503;-66
2022/08/21 01:07:58;;;;;;;;;;;;;;;24.72;50.91;94579.34;2073744;28;1650;-65
2022/08/21 01:09:01;;;;;;;;;;;;;;;24.66;51.56;94582.22;2079948;28;1789;-65
2022/08/21 01:10:05;;;;;;;;;;;;;;;24.62;51.76;94576.53;2082205;28;1042;-65
2022/08/21 01:11:08;;;;;;;;;;;;;;;24.57;51.80;94568.38;2081931;28;1108;-65
2022/08/21 01:12:10;;;;;;;;;;;;;;;24.63;51.39;94575.44;2081200;28;1663;-65
2022/08/21 01:13:15;;;;;;;;;;;;;;;24.62;51.48;94579.22;2076062;28;1600;-65
2022/08/21 01:14:19;;;;;;;;;;;;;;;24.65;51.25;94573.34;2073673;28;1117;-66
2022/08/21 01:15:23;;;;;;;;;;;;;;;24.63;51.51;94575.44;2073295;28;1015;-65
2022/08/21 01:16:25;;;;;;;;;;;;;;;24.64;51.20;94584.31;2069890;28;1762;-65
2022/08/21 01:17:28;;;;;;;;;;;;;;;24.55;51.47;94575.88;2072632;28;1553;-65
2022/08/21 01:18:30;;;;;;;;;;;;;;;24.59;51.45;94579.72;2073670;28;1724;-65
2022/08/21 01:19:33;;;;;;;;;;;;;;;24.60;51.66;94581.31;2076959;28;1595;-65
2022/08/21 01:20:35;;;;;;;;;;;;;;;24.55;51.61;94583.94;2081739;28;2067;-65
2022/08/21 01:21:40;;;;;;;;;;;;;;;24.52;51.90;94574.50;2074988;28;1532;-65
2022/08/21 01:22:44;;;;;;;;;;;;;;;24.51;52.06;94572.88;2073160;28;1717;-66
2022/08/21 01:23:48;;;;;;;;;;;;;;;24.55;51.56;94584.75;2078358;28;1640;-65
2022/08/21 01:24:50;;;;;;;;;;;;;;;24.53;51.74;94578.03;2081729;28;2003;-65
2022/08/21 01:25:53;;;;;;;;;;;;;;;24.49;51.87;94571.50;2081713;28;1036;-65
2022/08/21 01:26:55;;;;;;;;;;;;;;;24.48;51.68;94573.38;2080941;28;1574;-65
2022/08/21 01:28:00;;;;;;;;;;;;;;;24.52;51.90;94568.31;2072448;28;1487;-66
2022/08/21 01:29:09;;;;;;;;;;;;;;;24.51;51.61;94572.06;2076363;28;1808;-65
2022/08/21 01:30:14;;;;;;;;;;;;;;;24.48;51.77;94567.19;2080479;28;1567;-66
2022/08/21 01:31:17;;;;;;;;;;;;;;;24.47;51.95;94569.06;2078113;28;1722;-65
2022/08/21 01:32:27;;;;;;;;;;;;;;;24.50;51.86;94575.78;2081771;28;1510;-65
2022/08/21 01:33:29;;;;;;;;;;;;;;;24.51;52.03;94569.38;2082555;28;1769;-65
2022/08/21 01:34:32;;;;;;;;;;;;;;;24.54;51.77;94576.94;2075004;28;1180;-65
2022/08/21 01:35:34;;;;;;;;;;;;;;;24.51;52.02;94566.69;2074122;28;1655;-66
2022/08/21 01:36:37;;;;;;;;;;;;;;;24.50;51.88;94573.13;2075097;28;1002;-66
2022/08/21 01:37:40;;;;;;;;;;;;;;;24.47;52.34;94568.22;2079698;28;1539;-66
2022/08/21 01:38:43;;;;;;;;;;;;;;;24.50;52.10;94568.56;2062359;28;1008;-66
2022/08/21 01:39:46;;;;;;;;;;;;;;;24.46;51.83;94563.94;2062167;28;1115;-66
2022/08/21 01:40:48;;;;;;;;;;;;;;;24.46;52.13;94580.06;2067295;28;1098;-68
2022/08/21 01:41:50;;;;;;;;;;;;;;;24.49;52.03;94579.56;2066787;28;1116;-68
2022/08/21 01:42:53;;;;;;;;;;;;;;;24.56;51.84;94585.56;2080863;28;1603;-67
2022/08/21 01:43:55;;;;;;;;;;;;;;;24.54;51.79;94585.81;2083072;28;1105;-68
2022/08/21 01:44:58;;;;;;;;;;;;;;;24.53;51.54;94576.13;2081748;28;1914;-68
2022/08/21 01:46:00;;;;;;;;;;;;;;;24.52;51.76;94579.88;2080782;28;1766;-68
2022/08/21 01:47:04;;;;;;;;;;;;;;;24.55;51.42;94574.00;2075515;28;1010;-68
2022/08/21 01:48:06;;;;;;;;;;;;;;;24.56;51.54;94570.28;2075713;28;1871;-68
2022/08/21 01:49:09;;;;;;;;;;;;;;;24.57;51.71;94571.06;2078325;28;1696;-68
2022/08/21 01:50:13;;;;;;;;;;;;;;;24.53;51.52;94575.34;2077255;28;1739;-67
2022/08/21 01:51:16;;;;;;;;;;;;;;;24.47;52.10;94581.66;2077202;28;1603;-66
2022/08/21 01:52:18;;;;;;;;;;;;;;;24.45;51.90;94578.44;2082758;28;1728;-65
2022/08/21 01:53:22;;;;;;;;;;;;;;;24.42;52.08;94586.97;2082195;28;1606;-64
2022/08/21 01:54:34;;;;;;;;;;;;;;;24.45;51.75;94584.63;2079536;28;1570;-63
2022/08/21 01:55:37;;;;;;;;;;;;;;;24.47;52.01;94587.03;2074747;28;1219;-63
2022/08/21 01:56:40;;;;;;;;;;;;;;;24.49;52.12;94584.94;2074601;28;1349;-66
2022/08/21 01:57:43;;;;;;;;;;;;;;;24.45;51.77;94578.44;2080114;28;1539;-65
2022/08/21 01:58:46;;;;;;;;;;;;;;;24.42;52.29;94584.31;2066701;28;1013;-64
2022/08/21 01:59:49;;;;;;;;;;;;;;;24.47;51.91;94576.28;2076161;28;1546;-63
2022/08/21 02:00:50;;;;;;;;;;;;;;;24.46;51.65;94577.38;2078410;28;1569;-66
2022/08/21 02:01:54;;;;;;;;;;;;;;;24.42;52.01;94590.47;2074806;28;1705;-67
2022/08/21 02:02:57;;;;;;;;;;;;;;;24.42;51.74;94589.66;2077371;28;1634;-67
2022/08/21 02:03:59;;;;;;;;;;;;;;;24.42;51.64;94593.16;2080773;28;1519;-67
2022/08/21 02:05:03;;;;;;;;;;;;;;;24.45;51.50;94578.44;2075507;28;1585;-68
2022/08/21 02:06:06;;;;;;;;;;;;;;;24.42;51.69;94586.97;2074410;28;1930;-67
2022/08/21 02:07:09;;;;;;;;;;;;;;;24.43;51.54;94575.97;2078924;28;1591;-67
2022/08/21 02:08:11;;;;;;;;;;;;;;;24.49;51.66;94585.72;2082719;28;1793;-64
2022/08/21 02:09:15;;;;;;;;;;;;;;;24.53;51.46;94583.38;2080454;28;1507;-62
2022/08/21 02:10:19;;;;;;;;;;;;;;;24.51;51.56;94582.81;2081182;28;2066;-62
2022/08/21 02:11:22;;;;;;;;;;;;;;;24.50;51.61;94583.84;2082888;28;1140;-67
2022/08/21 02:12:23;;;;;;;;;;;;;;;24.47;51.36;94587.88;2081898;28;1562;-66
2022/08/21 02:13:26;;;;;;;;;;;;;;;24.49;51.43;94584.94;2070697;28;1533;-65
2022/08/21 02:14:28;;;;;;;;;;;;;;;24.49;51.58;94592.97;2081883;28;1718;-67
2022/08/21 02:15:34;;;;;;;;;;;;;;;24.46;51.39;94596.97;2080328;28;1543;-66
2022/08/21 02:16:36;;;;;;;;;;;;;;;24.47;51.56;94592.41;2082548;28;1056;-65
2022/08/21 02:17:40;;;;;;;;;;;;;;;24.41;51.70;94604.13;2078894;28;1599;-60
2022/08/21 02:18:42;;;;;;;;;;;;;;;24.37;51.75;94603.00;2078196;28;1767;-62
2022/08/21 02:19:45;;;;;;;;;;;;;;;24.41;52.02;94598.75;2075847;28;1655;-59
2022/08/21 02:20:48;;;;;;;;;;;;;;;24.41;51.82;94598.75;2080758;28;1089;-60
2022/08/21 02:21:58;;;;;;;;;;;;;;;24.44;51.93;94593.72;2078737;28;1761;-63
2022/08/21 02:23:01;;;;;;;;;;;;;;;24.45;51.50;94591.88;2081849;28;1550;-63
2022/08/21 02:24:03;;;;;;;;;;;;;;;24.42;51.52;94589.66;2077287;28;1707;-62
2022/08/21 02:25:08;;;;;;;;;;;;;;;24.41;51.74;94594.19;2068949;28;1598;-62
2022/08/21 02:26:09;;;;;;;;;;;;;;;24.40;51.86;94599.84;2081180;28;1902;-62
2022/08/21 02:27:12;;;;;;;;;;;;;;;24.39;51.72;94606.25;2081921;28;1657;-62
2022/08/21 02:28:15;;;;;;;;;;;;;;;24.37;51.93;94605.69;2074845;28;1620;-63
2022/08/21 02:29:17;;;;;;;;;;;;;;;24.33;51.76;94608.03;2074405;28;1040;-61
2022/08/21 02:30:22;;;;;;;;;;;;;;;24.36;51.83;94607.56;2075529;28;1868;-61
2022/08/21 02:31:25;;;;;;;;;;;;;;;24.41;51.59;94604.13;2076276;28;1796;-60
2022/08/21 02:32:27;;;;;;;;;;;;;;;24.37;51.95;94608.38;2078906;28;1615;-61
2022/08/21 02:33:30;;;;;;;;;;;;;;;24.39;51.54;94612.44;2081299;28;1608;-61
2022/08/21 02:34:32;;;;;;;;;;;;;;;24.43;51.42;94602.84;2074517;28;1724;-60
2022/08/21 02:35:35;;;;;;;;;;;;;;;24.43;51.72;94607.41;2070148;28;1202;-60
2022/08/21 02:36:37;;;;;;;;;;;;;;;24.46;51.42;94598.84;2069385;28;1759;-60
2022/08/21 02:37:47;;;;;;;;;;;;;;;24.45;51.88;94599.91;2078353;28;1700;-60
2022/08/21 02:38:49;;;;;;;;;;;;;;;24.42;51.91;94597.72;2080129;28;1740;-60
2022/08/21 02:39:52;;;;;;;;;;;;;;;24.43;52.05;94596.66;2082811;28;1112;-61
2022/08/21 02:40:55;;;;;;;;;;;;;;;24.40;52.21;94602.53;2082347;28;1774;-60
2022/08/21 02:41:58;;;;;;;;;;;;;;;24.45;51.99;94603.41;2079652;28;2112;-62
2022/08/21 02:43:01;;;;;;;;;;;;;;;24.40;52.48;94602.53;2074555;28;1737;-61
2022/08/21 02:44:04;;;;;;;;;;;;;;;24.32;51.98;94609.91;2077402;28;2086;-61
2022/08/21 02:45:06;;;;;;;;;;;;;;;24.30;52.08;94612.06;2082764;28;1069;-61
2022/08/21 02:46:09;;;;;;;;;;;;;;;24.29;51.85;94605.03;2079557;28;1894;-61
2022/08/21 02:47:11;;;;;;;;;;;;;;;24.30;51.85;94609.38;2074359;28;1552;-60
2022/08/21 02:48:15;;;;;;;;;;;;;;;24.29;51.85;94604.22;2074978;28;1616;-62
2022/08/21 02:49:17;;;;;;;;;;;;;;;24.28;51.99;94599.94;2080933;28;1640;-62
2022/08/21 02:50:21;;;;;;;;;;;;;;;24.29;51.82;94607.72;2082595;28;1721;-62
2022/08/21 02:51:24;;;;;;;;;;;;;;;24.28;51.57;94606.09;2069851;28;2007;-61
2022/08/21 02:52:26;;;;;;;;;;;;;;;24.27;51.59;94615.22;2080777;28;1629;-61
2022/08/21 02:53:28;;;;;;;;;;;;;;;24.30;51.77;94601.31;2074295;28;1791;-61
2022/08/21 02:54:31;;;;;;;;;;;;;;;24.37;51.88;94605.69;2074418;28;1763;-61
2022/08/21 02:55:35;;;;;;;;;;;;;;;24.37;51.68;94608.38;2074284;28;1202;-63
2022/08/21 02:56:39;;;;;;;;;;;;;;;24.38;51.84;94604.63;2076162;28;1544;-61
2022/08/21 02:57:41;;;;;;;;;;;;;;;24.36;51.37;94610.25;2078752;28;1653;-62
2022/08/21 02:58:46;;;;;;;;;;;;;;;24.33;51.71;94608.88;2072292;28;1563;-61
2022/08/21 02:59:48;;;;;;;;;;;;;;;24.35;51.35;94611.31;2081564;28;1857;-60
2022/08/21 03:00:51;;;;;;;;;;;;;;;24.31;51.58;94608.31;2080606;28;1538;-63
2022/08/21 03:01:55;;;;;;;;;;;;;;;24.33;51.37;94608.88;2076882;28;1598;-62
2022/08/21 03:02:58;;;;;;;;;;;;;;;24.27;51.62;94611.72;2074000;28;1563;-63
2022/08/21 03:04:01;;;;;;;;;;;;;;;24.25;51.51;94603.09;2077960;28;1739;-62
2022/08/21 03:05:03;;;;;;;;;;;;;;;24.27;51.70;94607.19;2080160;28;1681;-62
2022/08/21 03:06:07;;;;;;;;;;;;;;;24.26;51.46;94602.03;2078837;28;1964;-63
2022/08/21 03:07:10;;;;;;;;;;;;;;;24.28;51.08;94600.75;2076385;28;1491;-63
2022/08/21 03:08:13;;;;;;;;;;;;;;;24.30;51.31;94597.78;2082588;28;1188;-63
2022/08/21 03:09:16;;;;;;;;;;;;;;;24.25;51.05;94603.91;2079373;28;1746;-65
2022/08/21 03:10:19;;;;;;;;;;;;;;;24.32;50.98;94607.22;2073049;28;1737;-62
2022/08/21 03:11:22;;;;;;;;;;;;;;;24.35;50.76;94608.63;2078226;28;1764;-62
2022/08/21 03:12:25;;;;;;;;;;;;;;;24.34;50.74;94605.13;2080929;28;1626;-62
2022/08/21 03:13:32;;;;;;;;;;;;;;;24.33;50.92;94613.41;2082304;28;1010;-62
2022/08/21 03:14:33;;;;;;;;;;;;;;;24.38;50.88;94615.38;2082568;28;1081;-63
2022/08/21 03:15:36;;;;;;;;;;;;;;;24.39;50.62;94608.94;2078642;28;1581;-62
2022/08/21 03:16:38;;;;;;;;;;;;;;;24.39;50.75;94609.78;2074292;28;1134;-61
2022/08/21 03:17:41;;;;;;;;;;;;;;;24.37;50.41;94606.50;2077339;28;1516;-62
2022/08/21 03:18:43;;;;;;;;;;;;;;;24.37;50.77;94603.00;2074485;28;1084;-62
2022/08/21 03:19:45;;;;;;;;;;;;;;;24.33;50.52;94597.28;2074322;28;1787;-63
2022/08/21 03:20:48;;;;;;;;;;;;;;;24.33;50.65;94594.63;2077241;28;1709;-62
2022/08/21 03:21:50;;;;;;;;;;;;;;;24.37;50.58;94594.97;2077948;28;1234;-62
2022/08/21 03:22:53;;;;;;;;;;;;;;;24.32;50.53;94593.00;2080082;28;1536;-62
2022/08/21 03:23:56;;;;;;;;;;;;;;;24.33;50.61;94591.94;2082597;28;1088;-62
2022/08/21 03:24:58;;;;;;;;;;;;;;;24.34;50.46;94596.25;2074088;28;1552;-63
2022/08/21 03:26:01;;;;;;;;;;;;;;;24.32;50.55;94598.38;2081429;28;1521;-62
2022/08/21 03:27:03;;;;;;;;;;;;;;;24.30;50.67;94598.63;2079713;28;1981;-62
2022/08/21 03:28:15;;;;;;;;;;;;;;;24.25;50.84;94598.53;2081955;28;1116;-61
2022/08/21 03:29:17;;;;;;;;;;;;;;;24.25;51.19;94601.22;2077643;28;1451;-62
2022/08/21 03:30:21;;;;;;;;;;;;;;;24.23;51.40;94599.84;2071297;28;1531;-63
2022/08/21 03:31:23;;;;;;;;;;;;;;;24.25;50.89;94605.78;2078809;28;1714;-64
2022/08/21 03:32:26;;;;;;;;;;;;;;;24.22;50.91;94599.03;2072258;28;1712;-63
2022/08/21 03:33:28;;;;;;;;;;;;;;;24.24;51.22;94602.28;2075136;28;1760;-64
2022/08/21 03:34:31;;;;;;;;;;;;;;;24.32;50.64;94611.78;2081262;28;1736;-65
2022/08/21 03:35:32;;;;;;;;;;;;;;;24.37;50.70;94606.50;2066015;28;1457;-63
2022/08/21 03:36:35;;;;;;;;;;;;;;;24.38;50.53;94610.00;2066178;28;1685;-65
2022/08/21 03:37:37;;;;;;;;;;;;;;;24.44;50.32;94609.00;2077454;28;1668;-64
2022/08/21 03:38:40;;;;;;;;;;;;;;;24.47;50.28;94608.53;2078990;28;1780;-65
2022/08/21 03:39:42;;;;;;;;;;;;;;;24.47;50.53;94614.72;2082635;28;1077;-66
2022/08/21 03:40:45;;;;;;;;;;;;;;;24.48;50.68;94615.53;2082099;28;1701;-66
2022/08/21 03:41:47;;;;;;;;;;;;;;;24.47;50.69;94613.88;2082334;28;1826;-63
2022/08/21 03:42:50;;;;;;;;;;;;;;;24.43;50.86;94618.13;2080313;28;1862;-61
2022/08/21 03:43:53;;;;;;;;;;;;;;;24.51;50.68;94615.03;2077788;28;1725;-64
2022/08/21 03:44:56;;;;;;;;;;;;;;;24.48;51.06;94615.53;2077850;28;1319;-65
2022/08/21 03:45:58;;;;;;;;;;;;;;;24.55;50.86;94616.97;2078619;28;1524;-64
2022/08/21 03:47:01;;;;;;;;;;;;;;;24.47;50.86;94612.03;2080658;28;1902;-65
2022/08/21 03:48:04;;;;;;;;;;;;;;;24.37;50.97;94613.75;2078993;28;2136;-65
2022/08/21 03:49:07;;;;;;;;;;;;;;;24.32;51.08;94607.22;2078130;28;1698;-64
2022/08/21 03:50:09;;;;;;;;;;;;;;;24.27;51.34;94609.03;2073819;28;1168;-63
2022/08/21 03:51:12;;;;;;;;;;;;;;;24.32;51.22;94612.59;2080120;28;1775;-64
2022/08/21 03:52:14;;;;;;;;;;;;;;;24.32;51.02;94607.22;2080202;28;1584;-65
2022/08/21 03:53:17;;;;;;;;;;;;;;;24.32;50.98;94606.41;2081406;28;1785;-68
2022/08/21 03:54:19;;;;;;;;;;;;;;;24.25;51.07;94598.53;2081346;28;1629;-64
2022/08/21 03:55:22;;;;;;;;;;;;;;;24.14;51.02;94602.13;2077087;28;1708;-64
2022/08/21 03:56:24;;;;;;;;;;;;;;;24.17;51.03;94604.31;2074755;28;1556;-60
2022/08/21 03:57:27;;;;;;;;;;;;;;;24.11;51.23;94605.28;2081239;28;2072;-61
2022/08/21 03:58:29;;;;;;;;;;;;;;;24.12;50.98;94613.06;2081827;28;1125;-60
2022/08/21 03:59:33;;;;;;;;;;;;;;;24.11;51.12;94607.94;2076113;28;1544;-64
2022/08/21 04:00:35;;;;;;;;;;;;;;;24.08;51.06;94606.56;2073428;28;1542;-62
2022/08/21 04:01:37;;;;;;;;;;;;;;;24.10;51.33;94611.69;2080552;28;1722;-64
2022/08/21 04:02:40;;;;;;;;;;;;;;;24.08;51.05;94611.94;2079666;28;1456;-61
2022/08/21 04:03:43;;;;;;;;;;;;;;;24.06;51.41;94610.53;2081966;28;1980;-61
2022/08/21 04:04:44;;;;;;;;;;;;;;;24.11;51.08;94616.00;2080870;28;1617;-66
2022/08/21 04:05:47;;;;;;;;;;;;;;;24.08;51.19;94613.81;2070765;28;1774;-67
2022/08/21 04:06:49;;;;;;;;;;;;;;;24.10;51.11;94619.72;2075291;28;1420;-68
2022/08/21 04:07:52;;;;;;;;;;;;;;;24.10;51.09;94619.72;2070301;28;1910;-67
2022/08/21 04:08:55;;;;;;;;;;;;;;;24.11;51.03;94621.38;2076496;28;1671;-67
2022/08/21 04:09:57;;;;;;;;;;;;;;;24.06;51.25;94621.28;2082400;28;1056;-68
2022/08/21 04:11:00;;;;;;;;;;;;;;;24.05;51.16;94619.66;2080508;28;1906;-67
2022/08/21 04:12:02;;;;;;;;;;;;;;;24.00;51.28;94619.56;2082257;28;1512;-67
2022/08/21 04:13:06;;;;;;;;;;;;;;;23.96;51.11;94613.06;2076539;28;1448;-67
2022/08/21 04:14:08;;;;;;;;;;;;;;;23.94;51.30;94612.50;2074118;28;1117;-67
2022/08/21 04:15:14;;;;;;;;;;;;;;;23.90;51.38;94615.66;2074419;28;1770;-67
2022/08/21 04:16:17;;;;;;;;;;;;;;;23.88;51.38;94612.41;2072112;28;1562;-67
2022/08/21 04:17:19;;;;;;;;;;;;;;;23.83;51.51;94612.31;2073695;28;1686;-66
2022/08/21 04:18:22;;;;;;;;;;;;;;;23.86;51.63;94609.16;2075464;28;1113;-69
2022/08/21 04:19:24;;;;;;;;;;;;;;;23.90;51.61;94614.84;2078471;28;1722;-66
2022/08/21 04:20:27;;;;;;;;;;;;;;;23.88;51.67;94607.03;2081754;28;1155;-67
2022/08/21 04:21:29;;;;;;;;;;;;;;;23.96;51.64;94615.72;2080963;28;1599;-67
2022/08/21 04:22:32;;;;;;;;;;;;;;;23.93;51.54;94614.34;2081219;28;1022;-68
2022/08/21 04:23:34;;;;;;;;;;;;;;;23.92;51.30;94616.22;2080409;28;1617;-68
2022/08/21 04:24:37;;;;;;;;;;;;;;;23.90;51.36;94610.31;2074759;28;1624;-66
2022/08/21 04:25:43;;;;;;;;;;;;;;;23.88;51.73;94612.41;2075660;28;1705;-68
2022/08/21 04:26:51;;;;;;;;;;;;;;;23.92;51.42;94612.72;2075482;28;1761;-67
2022/08/21 04:27:53;;;;;;;;;;;;;;;23.93;51.22;94614.34;2076745;28;1910;-67
2022/08/21 04:28:57;;;;;;;;;;;;;;;23.93;51.44;94608.97;2081127;28;1557;-67
2022/08/21 04:29:59;;;;;;;;;;;;;;;23.90;51.40;94610.31;2073973;28;1722;-67
2022/08/21 04:31:04;;;;;;;;;;;;;;;23.81;51.71;94611.72;2075723;28;1726;-66
2022/08/21 04:32:06;;;;;;;;;;;;;;;23.84;51.46;94616.59;2074668;28;1626;-66
2022/08/21 04:33:08;;;;;;;;;;;;;;;23.85;51.38;94622.81;2071820;28;1831;-67
2022/08/21 04:34:10;;;;;;;;;;;;;;;23.81;51.67;94619.78;2073670;28;1160;-66
2022/08/21 04:35:14;;;;;;;;;;;;;;;23.73;51.88;94611.31;2076375;28;1764;-65
2022/08/21 04:36:16;;;;;;;;;;;;;;;23.68;51.79;94610.19;2073524;28;1148;-65
2022/08/21 04:37:24;;;;;;;;;;;;;;;23.53;52.11;94609.06;2077251;28;1705;-66
2022/08/21 04:38:27;;;;;;;;;;;;;;;23.57;52.15;94605.69;2081912;28;1093;-65
2022/08/21 04:39:37;;;;;;;;;;;;;;;23.60;52.04;94607.06;2065656;28;1124;-67
2022/08/21 04:40:39;;;;;;;;;;;;;;;23.48;52.49;94601.78;2071885;28;1727;-67
2022/08/21 04:41:41;;;;;;;;;;;;;;;23.45;52.47;94597.69;2075785;28;1636;-66
2022/08/21 04:42:46;;;;;;;;;;;;;;;23.53;52.48;94601.03;2078105;28;1694;-66
2022/08/21 04:43:49;;;;;;;;;;;;;;;23.56;52.57;94603.22;2081744;28;1798;-65
2022/08/21 04:44:51;;;;;;;;;;;;;;;23.60;52.12;94605.19;2081674;28;1060;-65
2022/08/21 04:45:54;;;;;;;;;;;;;;;23.59;52.40;94605.44;2078695;28;1784;-65
2022/08/21 04:46:58;;;;;;;;;;;;;;;23.62;52.37;94613.03;2078774;28;1735;-66
2022/08/21 04:48:02;;;;;;;;;;;;;;;23.59;52.64;94608.94;2080241;28;1985;-65
2022/08/21 04:49:04;;;;;;;;;;;;;;;23.56;52.75;94614.78;2080469;28;1789;-65
2022/08/21 04:50:08;;;;;;;;;;;;;;;23.56;52.75;94613.97;2077910;28;1825;-65
2022/08/21 04:51:12;;;;;;;;;;;;;;;23.54;52.47;94608.03;2073682;28;1933;-61
2022/08/21 04:52:16;;;;;;;;;;;;;;;23.53;52.31;94611.75;2071547;28;1495;-60
2022/08/21 04:53:20;;;;;;;;;;;;;;;23.53;52.33;94609.88;2076883;28;1679;-61
2022/08/21 04:54:23;;;;;;;;;;;;;;;23.53;52.36;94609.88;2073493;28;1530;-61
2022/08/21 04:55:27;;;;;;;;;;;;;;;23.53;52.59;94609.88;2065585;28;1289;-62
2022/08/21 04:56:32;;;;;;;;;;;;;;;23.52;52.29;94612.81;2065376;28;1347;-61
2022/08/21 04:57:34;;;;;;;;;;;;;;;23.57;52.47;94608.38;2076997;28;1539;-61
2022/08/21 04:58:52;;;;;;;;;;;;;;;23.73;52.44;94606.75;2079820;28;1530;-61
2022/08/21 04:59:53;;;;;;;;;;;;;;;23.74;51.99;94602.22;2078345;28;1618;-59
2022/08/21 05:00:57;;;;;;;;;;;;;;;23.70;52.23;94604.56;2076137;28;1583;-60
2022/08/21 05:02:01;;;;;;;;;;;;;;;23.73;52.45;94605.94;2080874;28;1607;-60
2022/08/21 05:03:06;;;;;;;;;;;;;;;23.75;52.46;94603.84;2077934;28;1718;-60
2022/08/21 05:04:10;;;;;;;;;;;;;;;23.72;52.45;94602.44;2072696;28;1694;-60
2022/08/21 05:05:13;;;;;;;;;;;;;;;23.66;52.09;94614.16;2082880;28;1267;-60
2022/08/21 05:06:15;;;;;;;;;;;;;;;23.65;52.07;94601.81;2083688;28;1081;-59
2022/08/21 05:07:20;;;;;;;;;;;;;;;23.65;51.72;94607.16;2080770;28;1910;-60
2022/08/21 05:08:44;;;;;;;;;;;;;;;23.63;51.80;94599.34;2078088;28;2137;-59
2022/08/21 05:09:46;;;;;;;;;;;;;;;23.57;51.96;94605.69;2080617;28;1592;-58
2022/08/21 05:10:49;;;;;;;;;;;;;;;23.69;51.99;94602.94;2075491;28;1185;-59
2022/08/21 05:11:52;;;;;;;;;;;;;;;23.62;52.09;94602.28;2074283;28;1674;-60
2022/08/21 05:12:55;;;;;;;;;;;;;;;23.72;51.54;94605.13;2080704;28;1573;-58
2022/08/21 05:13:57;;;;;;;;;;;;;;;23.75;51.55;94599.28;2075425;28;2455;-59
2022/08/21 05:15:00;;;;;;;;;;;;;;;23.75;51.64;94601.97;2071238;28;1176;-60
2022/08/21 05:16:02;;;;;;;;;;;;;;;23.79;51.31;94595.09;2072373;28;1856;-60
2022/08/21 05:17:06;;;;;;;;;;;;;;;23.72;51.36;94599.78;2079211;28;1777;-61
2022/08/21 05:18:08;;;;;;;;;;;;;;;23.68;51.68;94595.97;2081950;28;1735;-59
2022/08/21 05:19:24;;;;;;;;;;;;;;;23.76;51.44;94602.78;2074636;28;1658;-59
2022/08/21 05:20:26;;;;;;;;;;;;;;;23.68;51.52;94601.31;2075413;28;1080;-58
2022/08/21 05:21:29;;;;;;;;;;;;;;;23.80;51.49;94598.56;2075395;28;1016;-59
2022/08/21 05:22:30;;;;;;;;;;;;;;;23.68;51.49;94599.44;2080501;28;1668;-58
2022/08/21 05:23:33;;;;;;;;;;;;;;;23.77;51.35;94594.50;2083474;28;2092;-60
2022/08/21 05:24:35;;;;;;;;;;;;;;;23.66;52.09;94598.88;2081952;28;1719;-59
2022/08/21 05:25:38;;;;;;;;;;;;;;;23.73;52.10;94597.91;2076597;28;2078;-58
2022/08/21 05:26:40;;;;;;;;;;;;;;;23.79;51.96;94597.75;2067895;28;1791;-59
2022/08/21 05:27:48;;;;;;;;;;;;;;;23.82;52.13;94599.97;2076743;28;1511;-58
2022/08/21 05:28:52;;;;;;;;;;;;;;;23.81;52.43;94606.38;2076888;28;2009;-60
2022/08/21 05:29:55;;;;;;;;;;;;;;;23.89;52.73;94602.47;2072818;28;1664;-59
2022/08/21 05:30:57;;;;;;;;;;;;;;;23.86;52.63;94602.97;2078818;28;1781;-58
2022/08/21 05:32:00;;;;;;;;;;;;;;;23.83;52.79;94601.56;2067205;28;1105;-60
2022/08/21 05:33:04;;;;;;;;;;;;;;;23.84;52.85;94602.38;2075417;28;1585;-59
2022/08/21 05:34:07;;;;;;;;;;;;;;;23.84;52.59;94605.06;2074717;28;1282;-59